Time;durP1;ratioP1;P1;durP2;ratioP2;P2;SDS_P1;SDS_P2;PMS_P1;PMS_P2;Temp;Humidity;BMP_temperature;BMP_pressure;BME280_temperature;BME280_humidity;BME280_pressure;Samples;Min_cycle;Max_cycle;Signal;HPM_P1;HPM_P2
2021/11/24 00:00:22;;;;;;;42.17;19.43;;;;;;;3.71;100.00;102027.47;701259;28;1313;-55
2021/11/24 00:00:42;;;;;;;40.97;19.10;;;;;;;3.70;100.00;102021.44;699264;28;2029;-53
2021/11/24 00:01:03;;;;;;;41.27;19.53;;;;;;;3.70;100.00;102018.84;698839;28;4428;-56
2021/11/24 00:01:24;;;;;;;45.38;19.88;;;;;;;3.69;100.00;102017.06;698649;28;1092;-52
2021/11/24 00:01:44;;;;;;;40.80;19.30;;;;;;;3.70;100.00;102013.69;698703;28;1181;-54
2021/11/24 00:02:04;;;;;;;39.93;18.50;;;;;;;3.73;100.00;102018.97;697292;28;1344;-53
2021/11/24 00:02:25;;;;;;;38.63;18.50;;;;;;;3.71;100.00;102015.44;696760;28;1102;-54
2021/11/24 00:02:47;;;;;;;36.20;17.55;;;;;;;3.72;100.00;102013.75;697331;28;3849;-53
2021/11/24 00:03:09;;;;;;;36.65;18.40;;;;;;;3.72;100.00;102014.66;697005;28;1260;-54
2021/11/24 00:03:29;;;;;;;38.97;18.50;;;;;;;3.73;100.00;102016.38;694363;28;2558;-54
2021/11/24 00:03:50;;;;;;;40.92;19.48;;;;;;;3.73;100.00;102012.94;698668;28;1300;-54
2021/11/24 00:04:10;;;;;;;42.00;19.87;;;;;;;3.72;100.00;102014.66;698665;28;4377;-55
2021/11/24 00:04:31;;;;;;;42.00;19.80;;;;;;;3.70;100.00;102005.91;699397;28;1922;-52
2021/11/24 00:04:51;;;;;;;42.73;20.13;;;;;;;3.71;100.00;102017.13;699375;28;922;-55
2021/11/24 00:05:11;;;;;;;43.83;19.97;;;;;;;3.70;100.00;102013.69;699596;28;1193;-51
2021/11/24 00:05:32;;;;;;;43.03;19.83;;;;;;;3.69;100.00;102014.47;696730;28;3949;-54
2021/11/24 00:05:53;;;;;;;42.80;19.65;;;;;;;3.68;100.00;102010.16;696956;28;3425;-55
2021/11/24 00:06:13;;;;;;;42.77;20.13;;;;;;;3.68;100.00;102007.56;697034;28;1588;-52
2021/11/24 00:06:33;;;;;;;43.53;20.20;;;;;;;3.69;100.00;102011.03;696853;28;1217;-55
2021/11/24 00:06:54;;;;;;;44.70;20.10;;;;;;;3.69;100.00;102011.91;697080;28;4345;-51
2021/11/24 00:07:14;;;;;;;46.72;20.48;;;;;;;3.69;100.00;102005.84;696918;28;1258;-55
2021/11/24 00:07:35;;;;;;;46.63;19.93;;;;;;;3.69;100.00;102004.13;698867;28;1309;-53
2021/11/24 00:07:56;;;;;;;42.30;19.83;;;;;;;3.70;100.00;102007.63;697280;28;1163;-53
2021/11/24 00:08:16;;;;;;;43.50;19.92;;;;;;;3.70;100.00;102007.63;696641;28;1162;-55
2021/11/24 00:08:36;;;;;;;41.83;19.73;;;;;;;3.70;100.00;102013.69;697174;28;3092;-52
2021/11/24 00:08:57;;;;;;;44.05;20.50;;;;;;;3.70;100.00;102002.47;697291;28;1357;-55
2021/11/24 00:09:17;;;;;;;44.03;20.33;;;;;;;3.70;100.00;102008.50;694574;28;1365;-54
2021/11/24 00:09:38;;;;;;;41.22;19.30;;;;;;;3.72;100.00;102003.38;695980;28;1731;-53
2021/11/24 00:09:58;;;;;;;42.73;20.40;;;;;;;3.73;100.00;102007.75;696018;28;4581;-57
2021/11/24 00:10:19;;;;;;;46.30;20.63;;;;;;;3.72;100.00;102008.56;696384;28;1031;-52
2021/11/24 00:10:39;;;;;;;44.20;20.48;;;;;;;3.70;100.00;102005.91;695937;28;1167;-52
2021/11/24 00:11:00;;;;;;;42.43;20.47;;;;;;;3.71;100.00;102001.63;697313;28;1060;-51
2021/11/24 00:11:20;;;;;;;42.75;20.70;;;;;;;3.73;100.00;102005.16;699453;28;1002;-54
2021/11/24 00:11:41;;;;;;;43.43;20.70;;;;;;;3.72;100.00;102004.28;698712;28;3432;-53
2021/11/24 00:12:03;;;;;;;41.22;19.75;;;;;;;3.72;100.00;102009.47;699072;28;1354;-54
2021/11/24 00:12:24;;;;;;;42.67;19.75;;;;;;;3.71;100.00;101999.94;699575;28;1349;-55
2021/11/24 00:12:46;;;;;;;41.13;19.33;;;;;;;3.73;100.00;102007.75;699863;28;1026;-52
2021/11/24 00:13:06;;;;;;;42.90;19.65;;;;;;;3.72;100.00;102004.28;699840;28;4931;-52
2021/11/24 00:13:27;;;;;;;42.40;19.98;;;;;;;3.70;100.00;102005.91;699217;28;1242;-55
2021/11/24 00:13:47;;;;;;;38.80;19.37;;;;;;;3.69;100.00;101998.97;698080;28;1346;-52
2021/11/24 00:14:08;;;;;;;40.25;20.08;;;;;;;3.70;100.00;102000.75;698626;28;1329;-53
2021/11/24 00:14:28;;;;;;;42.07;20.37;;;;;;;3.70;100.00;102000.75;699462;28;2497;-56
2021/11/24 00:14:48;;;;;;;42.13;19.77;;;;;;;3.72;100.00;102004.28;698412;28;3667;-55
2021/11/24 00:15:10;;;;;;;41.03;19.63;;;;;;;3.73;100.00;102000.88;699973;28;1151;-54
2021/11/24 00:15:31;;;;;;;38.08;19.35;;;;;;;3.75;100.00;102003.53;699206;28;1276;-55
2021/11/24 00:15:52;;;;;;;40.75;19.58;;;;;;;3.74;100.00;102002.66;699984;28;1645;-56
2021/11/24 00:16:12;;;;;;;39.40;19.95;;;;;;;3.74;100.00;102005.25;699470;28;4461;-53
2021/11/24 00:16:32;;;;;;;39.63;19.40;;;;;;;3.74;100.00;102002.66;699469;28;1218;-56
2021/11/24 00:16:53;;;;;;;41.40;19.20;;;;;;;3.75;100.00;102003.53;699678;28;1313;-53
2021/11/24 00:17:13;;;;;;;42.08;19.83;;;;;;;3.74;100.00;102002.66;699432;28;1242;-52
2021/11/24 00:17:34;;;;;;;39.53;19.70;;;;;;;3.73;100.00;102000.88;700750;28;3028;-54
2021/11/24 00:17:55;;;;;;;44.15;19.95;;;;;;;3.73;100.00;102005.16;699466;28;3943;-52
2021/11/24 00:18:15;;;;;;;45.38;20.40;;;;;;;3.71;100.00;101997.34;698312;28;1336;-56
2021/11/24 00:18:35;;;;;;;43.10;20.47;;;;;;;3.71;100.00;102001.63;699471;28;1340;-52
2021/11/24 00:18:56;;;;;;;44.95;21.02;;;;;;;3.71;100.00;102004.19;696800;28;4630;-55
2021/11/24 00:19:16;;;;;;;43.30;20.40;;;;;;;3.71;100.00;101996.44;696211;28;1277;-53
2021/11/24 00:19:36;;;;;;;42.97;20.07;;;;;;;3.72;100.00;102001.72;697260;28;1227;-56
2021/11/24 00:19:57;;;;;;;41.73;20.13;;;;;;;3.72;100.00;101999.13;697276;28;1404;-55
2021/11/24 00:20:17;;;;;;;43.17;20.90;;;;;;;3.73;100.00;102000.00;693001;28;3069;-53
2021/11/24 00:20:38;;;;;;;43.50;20.63;;;;;;;3.73;100.00;102000.88;695121;28;3627;-54
2021/11/24 00:20:58;;;;;;;41.03;20.13;;;;;;;3.74;100.00;101999.19;695338;28;1423;-55
2021/11/24 00:21:19;;;;;;;43.33;20.50;;;;;;;3.72;100.00;101999.13;696026;28;1260;-55
2021/11/24 00:21:40;;;;;;;47.72;20.98;;;;;;;3.73;100.00;102000.00;696195;28;1270;-54
2021/11/24 00:22:00;;;;;;;47.42;21.08;;;;;;;3.70;100.00;101995.56;695991;28;4467;-53
2021/11/24 00:22:20;;;;;;;45.40;20.70;;;;;;;3.70;100.00;101992.97;698958;28;991;-51
2021/11/24 00:22:41;;;;;;;45.00;20.57;;;;;;;3.73;100.00;102002.59;699881;28;1233;-55
2021/11/24 00:23:01;;;;;;;44.73;20.60;;;;;;;3.73;100.00;101995.69;695722;28;1330;-54
2021/11/24 00:23:22;;;;;;;44.73;20.90;;;;;;;3.72;100.00;101996.53;696350;28;3081;-55
2021/11/24 00:23:42;;;;;;;46.43;20.67;;;;;;;3.73;100.00;101990.53;696456;28;3880;-52
2021/11/24 00:24:03;;;;;;;47.03;21.10;;;;;;;3.73;100.00;102003.47;696812;28;1113;-53
2021/11/24 00:24:23;;;;;;;47.08;21.60;;;;;;;3.73;100.00;101998.28;695514;28;1922;-55
2021/11/24 00:24:43;;;;;;;47.23;21.13;;;;;;;3.73;100.00;101998.28;695294;28;1313;-55
2021/11/24 00:25:05;;;;;;;46.47;21.17;;;;;;;3.74;100.00;102002.66;696431;28;4761;-53
2021/11/24 00:25:25;;;;;;;43.05;20.73;;;;;;;3.75;100.00;101996.66;693826;28;1261;-54
2021/11/24 00:25:46;;;;;;;45.10;20.50;;;;;;;3.74;100.00;101999.19;691940;28;1140;-56
2021/11/24 00:26:06;;;;;;;44.00;20.07;;;;;;;3.75;100.00;102000.94;691265;28;1337;-54
2021/11/24 00:26:27;;;;;;;47.80;20.98;;;;;;;3.74;100.00;102002.66;690665;28;3100;-51
2021/11/24 00:26:47;;;;;;;43.80;20.17;;;;;;;3.76;100.00;102000.13;691731;28;1533;-54
2021/11/24 00:27:08;;;;;;;41.30;20.48;;;;;;;3.75;100.00;101991.50;689105;28;1230;-54
2021/11/24 00:27:28;;;;;;;41.17;20.20;;;;;;;3.75;100.00;101996.66;696690;28;1191;-54
2021/11/24 00:27:48;;;;;;;42.40;19.50;;;;;;;3.75;100.00;101993.19;699734;28;1087;-55
2021/11/24 00:28:09;;;;;;;42.97;18.97;;;;;;;3.75;100.00;101991.50;698949;28;4434;-56
2021/11/24 00:28:30;;;;;;;45.37;20.57;;;;;;;3.75;100.00;101998.34;698558;28;1355;-54
2021/11/24 00:28:50;;;;;;;43.22;20.30;;;;;;;3.75;100.00;101990.59;699646;28;1157;-52
2021/11/24 00:29:10;;;;;;;45.07;20.13;;;;;;;3.74;100.00;101997.47;701340;28;1167;-53
2021/11/24 00:29:31;;;;;;;43.53;19.75;;;;;;;3.77;100.00;101998.41;699444;28;3602;-51
2021/11/24 00:29:53;;;;;;;43.60;19.50;;;;;;;3.75;100.00;101994.09;699861;28;1464;-55
2021/11/24 00:30:14;;;;;;;43.40;18.98;;;;;;;3.76;100.00;102000.13;698857;28;1099;-54
2021/11/24 00:30:35;;;;;;;43.47;19.50;;;;;;;3.75;100.00;101999.25;698874;28;1259;-53
2021/11/24 00:30:55;;;;;;;43.58;19.70;;;;;;;3.77;100.00;101995.81;699227;28;4409;-53
2021/11/24 00:31:16;;;;;;;43.83;20.13;;;;;;;3.77;100.00;101996.72;699985;28;1348;-51
2021/11/24 00:31:36;;;;;;;46.47;19.90;;;;;;;3.77;100.00;101996.72;699192;28;1115;-55
2021/11/24 00:31:56;;;;;;;45.70;20.00;;;;;;;3.77;100.00;101991.56;699681;28;1336;-52
2021/11/24 00:32:17;;;;;;;43.83;19.67;;;;;;;3.76;100.00;101994.94;696618;28;1878;-52
2021/11/24 00:32:37;;;;;;;45.03;19.92;;;;;;;3.78;100.00;102000.19;696839;28;3316;-51
2021/11/24 00:32:58;;;;;;;43.60;20.50;;;;;;;3.78;100.00;101992.44;696291;28;1364;-53
2021/11/24 00:33:18;;;;;;;43.90;19.67;;;;;;;3.77;100.00;101996.72;697002;28;1337;-55
2021/11/24 00:33:38;;;;;;;45.63;20.67;;;;;;;3.79;100.00;101996.78;697728;28;1139;-55
2021/11/24 00:34:00;;;;;;;45.90;20.57;;;;;;;3.78;100.00;101993.34;696786;28;4790;-55
2021/11/24 00:34:21;;;;;;;49.25;21.30;;;;;;;3.80;100.00;101998.56;699408;28;1031;-53
2021/11/24 00:34:41;;;;;;;49.42;21.20;;;;;;;3.79;100.00;102005.44;697165;28;1289;-51
2021/11/24 00:35:03;;;;;;;45.93;20.90;;;;;;;3.79;100.00;101995.09;697361;28;1119;-52
2021/11/24 00:35:23;;;;;;;45.42;20.25;;;;;;;3.80;100.00;102001.16;696600;28;3386;-55
2021/11/24 00:35:44;;;;;;;45.70;20.48;;;;;;;3.79;100.00;102001.97;697200;28;1476;-54
2021/11/24 00:36:05;;;;;;;45.00;20.10;;;;;;;3.78;100.00;101992.44;697154;28;1340;-53
2021/11/24 00:36:25;;;;;;;45.45;19.92;;;;;;;3.79;100.00;101994.22;697555;28;1055;-52
2021/11/24 00:36:45;;;;;;;47.00;20.80;;;;;;;3.78;100.00;101997.59;699515;28;1333;-52
2021/11/24 00:37:06;;;;;;;45.67;20.17;;;;;;;3.77;100.00;102001.00;698939;28;5384;-54
2021/11/24 00:37:28;;;;;;;46.93;19.97;;;;;;;3.77;100.00;101999.31;700063;28;1042;-54
2021/11/24 00:37:48;;;;;;;45.92;20.23;;;;;;;3.77;100.00;102003.59;699910;28;1298;-54
2021/11/24 00:38:09;;;;;;;45.97;19.83;;;;;;;3.77;100.00;102001.00;699489;28;3901;-54
2021/11/24 00:38:29;;;;;;;45.80;19.85;;;;;;;3.77;100.00;101994.16;700186;28;3424;-53
2021/11/24 00:38:49;;;;;;;45.00;20.37;;;;;;;3.78;100.00;101998.50;698203;28;1317;-55
2021/11/24 00:39:10;;;;;;;44.63;20.50;;;;;;;3.79;100.00;101999.38;699611;28;3804;-53
2021/11/24 00:39:30;;;;;;;46.20;20.73;;;;;;;3.79;100.00;101995.09;699928;28;1423;-55
2021/11/24 00:39:51;;;;;;;44.20;21.15;;;;;;;3.78;100.00;101992.44;698447;28;1202;-54
2021/11/24 00:40:11;;;;;;;48.97;20.90;;;;;;;3.76;100.00;101997.53;698394;28;4386;-52
2021/11/24 00:40:32;;;;;;;48.33;20.77;;;;;;;3.77;100.00;101995.81;699426;28;1131;-56
2021/11/24 00:40:52;;;;;;;45.65;20.60;;;;;;;3.75;100.00;101996.66;698762;28;1142;-54
2021/11/24 00:41:12;;;;;;;43.78;20.30;;;;;;;3.74;100.00;101992.31;699258;28;3250;-52
2021/11/24 00:41:33;;;;;;;45.83;21.10;;;;;;;3.74;100.00;101992.31;698981;28;3967;-52
2021/11/24 00:41:53;;;;;;;48.40;21.97;;;;;;;3.73;100.00;101998.28;696952;28;1252;-60
2021/11/24 00:42:14;;;;;;;45.53;22.20;;;;;;;3.74;100.00;101991.44;697192;28;1257;-52
2021/11/24 00:42:35;;;;;;;49.90;22.70;;;;;;;3.74;100.00;101997.47;697538;28;1420;-52
2021/11/24 00:42:56;;;;;;;47.10;22.23;;;;;;;3.75;100.00;101998.34;696559;28;4593;-53
2021/11/24 00:43:16;;;;;;;47.05;22.88;;;;;;;3.74;100.00;101991.44;696631;28;1222;-54
2021/11/24 00:43:37;;;;;;;46.83;21.60;;;;;;;3.73;100.00;101993.09;697864;28;1154;-57
2021/11/24 00:43:57;;;;;;;48.60;22.17;;;;;;;3.74;100.00;101994.03;696520;28;1376;-52
2021/11/24 00:44:18;;;;;;;47.57;21.80;;;;;;;3.73;100.00;101993.09;695657;28;3089;-53
2021/11/24 00:44:39;;;;;;;45.90;20.92;;;;;;;3.73;100.00;101994.81;696425;28;3432;-56
2021/11/24 00:44:59;;;;;;;49.67;22.52;;;;;;;3.73;100.00;101994.81;695187;28;1350;-56
2021/11/24 00:45:22;;;;;;;48.30;22.20;;;;;;;3.73;100.00;101997.41;695935;28;1087;-53
2021/11/24 00:45:45;;;;;;;48.40;22.17;;;;;;;3.73;100.00;101992.25;696736;28;1221;-57
2021/11/24 00:46:05;;;;;;;50.92;23.35;;;;;;;3.72;100.00;101987.88;696521;28;4480;-53
2021/11/24 00:46:25;;;;;;;52.78;23.38;;;;;;;3.69;100.00;101990.34;696951;28;1117;-51
2021/11/24 00:46:46;;;;;;;48.77;22.87;;;;;;;3.70;100.00;101995.56;696928;28;1182;-52
2021/11/24 00:47:08;;;;;;;49.60;22.92;;;;;;;3.68;100.00;101981.69;696806;28;3064;-52
2021/11/24 00:47:28;;;;;;;47.78;22.50;;;;;;;3.69;100.00;101988.63;696373;28;3460;-53
2021/11/24 00:47:49;;;;;;;47.90;22.50;;;;;;;3.69;100.00;101985.16;697544;28;1285;-56
2021/11/24 00:48:10;;;;;;;50.60;23.48;;;;;;;3.69;100.00;101988.63;699718;28;1016;-54
2021/11/24 00:48:30;;;;;;;53.63;23.98;;;;;;;3.70;100.00;101990.41;698929;28;1487;-54
2021/11/24 00:48:51;;;;;;;49.13;22.53;;;;;;;3.70;100.00;101984.34;698058;28;1351;-52
2021/11/24 00:49:11;;;;;;;48.33;21.60;;;;;;;3.69;100.00;101983.44;699010;28;4362;-52
2021/11/24 00:49:31;;;;;;;46.93;20.97;;;;;;;3.70;100.00;101986.94;700037;28;1163;-54
2021/11/24 00:49:52;;;;;;;46.65;20.65;;;;;;;3.70;100.00;101980.06;699272;28;1207;-54
2021/11/24 00:50:12;;;;;;;43.90;19.90;;;;;;;3.71;100.00;101983.50;698988;28;3451;-55
2021/11/24 00:50:32;;;;;;;41.13;19.27;;;;;;;3.71;100.00;101980.91;699970;28;1444;-56
2021/11/24 00:50:53;;;;;;;44.27;20.03;;;;;;;3.72;100.00;101983.59;699025;28;1239;-53
2021/11/24 00:51:13;;;;;;;42.08;19.42;;;;;;;3.73;100.00;101982.75;699886;28;1079;-53
2021/11/24 00:51:34;;;;;;;42.47;19.70;;;;;;;3.72;100.00;101983.59;697005;28;1194;-52
2021/11/24 00:51:54;;;;;;;42.75;19.13;;;;;;;3.73;100.00;101985.34;696624;28;4338;-51
2021/11/24 00:52:15;;;;;;;42.07;19.20;;;;;;;3.73;100.00;101977.59;693401;28;1262;-57
2021/11/24 00:52:38;;;;;;;39.67;19.75;;;;;;;3.73;100.00;101982.75;694170;28;1249;-54
2021/11/24 00:52:58;;;;;;;40.30;19.20;;;;;;;3.74;100.00;101983.66;693196;28;3170;-53
2021/11/24 00:53:19;;;;;;;40.75;19.27;;;;;;;3.73;100.00;101985.34;692869;28;3562;-52
2021/11/24 00:53:40;;;;;;;42.85;20.05;;;;;;;3.75;100.00;101982.84;696739;28;1389;-53
2021/11/24 00:54:00;;;;;;;42.28;19.83;;;;;;;3.75;100.00;101982.84;697449;28;1446;-52
2021/11/24 00:54:20;;;;;;;41.23;18.80;;;;;;;3.75;100.00;101983.72;699505;28;1143;-51
2021/11/24 00:54:41;;;;;;;36.92;18.50;;;;;;;3.76;100.00;101984.59;700971;28;1151;-52
2021/11/24 00:55:01;;;;;;;38.60;19.67;;;;;;;3.76;100.00;101979.44;698378;28;4340;-52
2021/11/24 00:55:22;;;;;;;39.22;19.70;;;;;;;3.77;100.00;101985.47;699444;28;1154;-55
2021/11/24 00:55:42;;;;;;;38.17;19.40;;;;;;;3.77;100.00;101980.31;699532;28;1139;-51
2021/11/24 00:56:03;;;;;;;38.17;19.25;;;;;;;3.78;100.00;101979.50;699500;28;3185;-51
2021/11/24 00:56:23;;;;;;;37.80;18.73;;;;;;;3.77;100.00;101980.31;698956;28;3509;-54
2021/11/24 00:56:44;;;;;;;40.27;19.67;;;;;;;3.78;100.00;101979.50;699230;28;1292;-55
2021/11/24 00:57:05;;;;;;;42.85;19.38;;;;;;;3.79;100.00;101984.72;698505;28;1329;-54
2021/11/24 00:57:26;;;;;;;40.63;18.92;;;;;;;3.80;100.00;101983.06;699013;28;1254;-54
2021/11/24 00:57:46;;;;;;;42.13;19.90;;;;;;;3.81;100.00;101984.78;699910;28;1213;-51
2021/11/24 00:58:06;;;;;;;40.00;18.87;;;;;;;3.80;100.00;101986.50;699233;28;4404;-54
2021/11/24 00:58:27;;;;;;;38.33;18.83;;;;;;;3.80;100.00;101980.47;699979;28;1112;-55
2021/11/24 00:58:47;;;;;;;39.58;19.55;;;;;;;3.79;100.00;101982.16;699666;28;1360;-52
2021/11/24 00:59:08;;;;;;;37.33;19.20;;;;;;;3.80;100.00;101980.47;699192;28;3596;-53
2021/11/24 00:59:28;;;;;;;41.13;19.23;;;;;;;3.79;100.00;101981.28;698291;28;1358;-50
2021/11/24 00:59:48;;;;;;;42.83;19.30;;;;;;;3.78;100.00;101983.00;698938;28;1138;-54
2021/11/24 01:00:14;;;;;;;40.88;19.20;;;;;;;3.79;100.00;101981.28;699558;28;1377;-53
2021/11/24 01:00:35;;;;;;;40.75;19.10;;;;;;;3.78;100.00;101983.00;699013;28;1328;-54
2021/11/24 01:00:55;;;;;;;44.43;19.83;;;;;;;3.79;100.00;101983.88;699569;28;4372;-53
2021/11/24 01:01:16;;;;;;;42.40;19.42;;;;;;;3.78;100.00;101982.09;698853;28;1425;-54
2021/11/24 01:01:36;;;;;;;39.33;18.63;;;;;;;3.78;100.00;101980.41;702674;28;1321;-53
2021/11/24 01:01:56;;;;;;;38.95;18.83;;;;;;;3.78;100.00;101979.50;702652;28;3128;-54
2021/11/24 01:02:17;;;;;;;39.07;18.37;;;;;;;3.79;100.00;101979.56;701647;28;3396;-51
2021/11/24 01:02:37;;;;;;;37.90;18.48;;;;;;;3.79;100.00;101978.69;702361;28;1379;-53
2021/11/24 01:02:58;;;;;;;34.23;18.30;;;;;;;3.79;100.00;101978.69;703825;28;1490;-52
2021/11/24 01:03:18;;;;;;;36.85;18.65;;;;;;;3.79;100.00;101979.56;702607;28;1396;-51
2021/11/24 01:03:39;;;;;;;37.13;18.43;;;;;;;3.79;100.00;101970.94;699575;28;1190;-55
2021/11/24 01:04:00;;;;;;;39.03;18.98;;;;;;;3.80;100.00;101978.75;700508;28;4540;-54
2021/11/24 01:04:20;;;;;;;40.63;18.90;;;;;;;3.79;100.00;101979.56;695958;28;1914;-53
2021/11/24 01:04:41;;;;;;;37.70;18.07;;;;;;;3.80;100.00;101980.47;697842;28;1276;-53
2021/11/24 01:05:02;;;;;;;36.63;18.48;;;;;;;3.80;100.00;101981.34;696781;28;3453;-52
2021/11/24 01:05:23;;;;;;;35.80;18.80;;;;;;;3.80;100.00;101981.34;697192;28;1333;-52
2021/11/24 01:05:45;;;;;;;37.15;18.25;;;;;;;3.80;100.00;101990.81;697160;28;1545;-51
2021/11/24 01:06:06;;;;;;;39.35;18.90;;;;;;;3.80;100.00;101983.94;697611;28;1506;-51
2021/11/24 01:06:26;;;;;;;38.40;18.90;;;;;;;3.80;100.00;101983.06;697607;28;1242;-52
2021/11/24 01:06:47;;;;;;;38.88;19.08;;;;;;;3.81;100.00;101985.72;698389;28;1270;-55
2021/11/24 01:07:07;;;;;;;39.60;18.87;;;;;;;3.80;100.00;101985.63;699635;28;4377;-53
2021/11/24 01:07:28;;;;;;;38.30;19.15;;;;;;;3.80;100.00;101985.63;697305;28;1082;-51
2021/11/24 01:07:48;;;;;;;38.43;19.13;;;;;;;3.80;100.00;101980.47;696972;28;1985;-52
2021/11/24 01:08:08;;;;;;;39.22;18.58;;;;;;;3.82;100.00;101989.16;697315;28;3532;-52
2021/11/24 01:08:29;;;;;;;42.23;19.53;;;;;;;3.81;100.00;101982.22;697100;28;1358;-52
2021/11/24 01:08:50;;;;;;;39.63;19.15;;;;;;;3.81;100.00;101983.13;697836;28;1369;-53
2021/11/24 01:09:11;;;;;;;38.60;19.25;;;;;;;3.81;100.00;101988.28;696571;28;1538;-51
2021/11/24 01:09:32;;;;;;;38.45;18.77;;;;;;;3.82;100.00;101989.16;700290;28;1364;-53
2021/11/24 01:09:52;;;;;;;37.92;18.25;;;;;;;3.83;100.00;101988.34;700395;28;1253;-55
2021/11/24 01:10:13;;;;;;;37.90;18.23;;;;;;;3.81;100.00;101990.88;700035;28;4388;-54
2021/11/24 01:10:34;;;;;;;36.95;18.17;;;;;;;3.81;100.00;101989.97;697062;28;1433;-52
2021/11/24 01:10:54;;;;;;;36.30;18.03;;;;;;;3.81;100.00;101988.28;696158;28;3448;-56
2021/11/24 01:11:15;;;;;;;36.08;17.63;;;;;;;3.82;100.00;101990.06;696087;28;1255;-53
2021/11/24 01:11:36;;;;;;;35.40;17.60;;;;;;;3.82;100.00;101990.06;696759;28;1183;-55
2021/11/24 01:11:56;;;;;;;36.03;17.90;;;;;;;3.83;100.00;101990.94;698281;28;1393;-54
2021/11/24 01:12:18;;;;;;;36.42;18.13;;;;;;;3.82;100.00;101990.06;696966;28;1321;-55
2021/11/24 01:12:41;;;;;;;34.85;17.67;;;;;;;3.83;100.00;101988.34;700264;28;1155;-55
2021/11/24 01:13:02;;;;;;;37.55;18.25;;;;;;;3.82;100.00;101987.47;697062;28;4382;-54
2021/11/24 01:13:23;;;;;;;37.83;18.33;;;;;;;3.83;100.00;101988.34;696447;28;1172;-51
2021/11/24 01:13:44;;;;;;;37.67;18.00;;;;;;;3.83;100.00;101985.78;697099;28;3331;-54
2021/11/24 01:14:05;;;;;;;35.30;17.88;;;;;;;3.83;100.00;101985.78;696109;28;2079;-53
2021/11/24 01:14:26;;;;;;;34.17;17.88;;;;;;;3.83;100.00;101990.94;696935;28;1213;-53
2021/11/24 01:14:47;;;;;;;38.17;18.60;;;;;;;3.84;100.00;101984.97;697681;28;1239;-50
2021/11/24 01:15:08;;;;;;;37.67;18.70;;;;;;;3.84;100.00;101988.41;698859;28;1183;-52
2021/11/24 01:15:28;;;;;;;38.42;18.40;;;;;;;3.84;100.00;101988.41;699457;28;1253;-50
2021/11/24 01:15:49;;;;;;;39.17;18.63;;;;;;;3.85;100.00;101991.88;697138;28;1230;-51
2021/11/24 01:16:10;;;;;;;38.30;18.30;;;;;;;3.84;100.00;101991.00;695742;28;4540;-53
2021/11/24 01:16:30;;;;;;;36.10;18.40;;;;;;;3.83;100.00;101989.22;697829;28;1404;-51
2021/11/24 01:16:51;;;;;;;35.85;18.15;;;;;;;3.84;100.00;101990.13;696476;28;3077;-52
2021/11/24 01:17:11;;;;;;;34.40;17.90;;;;;;;3.84;100.00;101984.97;696123;28;3630;-52
2021/11/24 01:17:32;;;;;;;38.78;18.52;;;;;;;3.85;100.00;101987.63;696556;28;1556;-53
2021/11/24 01:17:53;;;;;;;36.77;18.80;;;;;;;3.87;100.00;101987.66;701223;28;1566;-54
2021/11/24 01:18:14;;;;;;;34.80;18.20;;;;;;;3.87;100.00;101990.25;699095;28;1161;-53
2021/11/24 01:18:34;;;;;;;37.05;18.80;;;;;;;3.87;100.00;101987.66;700464;28;1368;-53
2021/11/24 01:18:55;;;;;;;38.10;18.83;;;;;;;3.86;100.00;101980.72;700762;28;4592;-55
2021/11/24 01:19:17;;;;;;;35.33;17.80;;;;;;;3.86;100.00;101984.22;699914;28;1136;-55
2021/11/24 01:19:37;;;;;;;34.00;17.25;;;;;;;3.86;100.00;101978.13;700082;28;3153;-53
2021/11/24 01:19:57;;;;;;;34.50;17.60;;;;;;;3.86;100.00;101983.31;699870;28;2153;-54
2021/11/24 01:20:18;;;;;;;34.47;17.48;;;;;;;3.86;100.00;101980.72;699305;28;1063;-54
2021/11/24 01:20:38;;;;;;;34.73;17.23;;;;;;;3.86;100.00;101981.63;699959;28;1354;-54
2021/11/24 01:20:59;;;;;;;33.75;17.75;;;;;;;3.85;100.00;101976.34;700354;28;1336;-55
2021/11/24 01:21:19;;;;;;;34.63;17.83;;;;;;;3.86;100.00;101985.91;698804;28;1093;-51
2021/11/24 01:21:42;;;;;;;35.53;17.00;;;;;;;3.85;100.00;101985.03;700215;28;1163;-52
2021/11/24 01:22:02;;;;;;;33.42;17.83;;;;;;;3.86;100.00;101983.31;699217;28;4659;-54
2021/11/24 01:22:23;;;;;;;32.40;17.23;;;;;;;3.86;100.00;101978.13;700241;28;1004;-52
2021/11/24 01:22:44;;;;;;;32.77;17.27;;;;;;;3.85;100.00;101984.13;700144;28;3303;-52
2021/11/24 01:23:05;;;;;;;33.58;17.60;;;;;;;3.87;100.00;101974.75;700126;28;3698;-52
2021/11/24 01:23:25;;;;;;;34.80;17.92;;;;;;;3.86;100.00;101983.31;699557;28;1338;-52
2021/11/24 01:23:46;;;;;;;35.97;18.53;;;;;;;3.85;100.00;101974.69;701281;28;1242;-51
2021/11/24 01:24:07;;;;;;;36.78;18.33;;;;;;;3.85;100.00;101978.94;700318;28;1225;-53
2021/11/24 01:24:27;;;;;;;36.85;18.15;;;;;;;3.85;100.00;101973.78;698874;28;1973;-51
2021/11/24 01:24:47;;;;;;;35.50;18.07;;;;;;;3.85;100.00;101978.94;699917;28;1400;-54
2021/11/24 01:25:09;;;;;;;37.58;18.33;;;;;;;3.85;100.00;101973.78;699721;28;4578;-53
2021/11/24 01:25:29;;;;;;;36.67;17.95;;;;;;;3.86;100.00;101978.13;699917;28;1036;-52
2021/11/24 01:25:50;;;;;;;34.93;17.67;;;;;;;3.85;100.00;101981.53;699802;28;3230;-51
2021/11/24 01:26:10;;;;;;;35.73;17.50;;;;;;;3.85;100.00;101974.69;699917;28;3833;-53
2021/11/24 01:26:30;;;;;;;35.13;16.80;;;;;;;3.85;100.00;101973.78;699118;28;987;-52
2021/11/24 01:26:51;;;;;;;35.60;17.35;;;;;;;3.85;100.00;101971.19;698992;28;1055;-51
2021/11/24 01:27:11;;;;;;;34.50;17.10;;;;;;;3.85;100.00;101973.78;700482;28;1048;-54
2021/11/24 01:27:32;;;;;;;32.65;17.33;;;;;;;3.84;100.00;101972.91;700398;28;1062;-56
2021/11/24 01:27:52;;;;;;;34.83;17.63;;;;;;;3.85;100.00;101973.78;700028;28;1145;-53
2021/11/24 01:28:13;;;;;;;34.22;17.50;;;;;;;3.86;100.00;101975.53;699800;28;4474;-56
2021/11/24 01:28:34;;;;;;;34.70;17.67;;;;;;;3.85;100.00;101976.34;699605;28;3052;-51
2021/11/24 01:28:54;;;;;;;33.78;17.58;;;;;;;3.85;100.00;101971.19;697282;28;3427;-54
2021/11/24 01:29:14;;;;;;;34.23;17.70;;;;;;;3.86;100.00;101975.53;696653;28;1177;-53
2021/11/24 01:29:35;;;;;;;32.13;17.67;;;;;;;3.84;100.00;101972.91;697269;28;1169;-53
2021/11/24 01:29:55;;;;;;;36.10;18.58;;;;;;;3.84;100.00;101969.44;698202;28;1245;-53
2021/11/24 01:30:15;;;;;;;35.00;18.73;;;;;;;3.84;100.00;101983.25;697125;28;1272;-51
2021/11/24 01:30:36;;;;;;;33.65;17.63;;;;;;;3.84;100.00;101966.84;697548;28;1273;-54
2021/11/24 01:30:57;;;;;;;35.83;18.35;;;;;;;3.84;100.00;101966.84;699148;28;4483;-51
2021/11/24 01:31:19;;;;;;;37.67;19.40;;;;;;;3.84;100.00;101974.59;699988;28;1308;-51
2021/11/24 01:31:39;;;;;;;35.30;18.85;;;;;;;3.83;100.00;101971.13;698732;28;3549;-52
2021/11/24 01:31:59;;;;;;;33.87;17.83;;;;;;;3.83;100.00;101972.84;700859;28;1376;-54
2021/11/24 01:32:20;;;;;;;36.58;17.92;;;;;;;3.81;100.00;101977.94;696417;28;1243;-54
2021/11/24 01:32:41;;;;;;;34.30;17.23;;;;;;;3.82;100.00;101971.97;694697;28;1064;-54
2021/11/24 01:33:01;;;;;;;35.03;16.98;;;;;;;3.82;100.00;101971.06;694962;28;1018;-53
2021/11/24 01:33:22;;;;;;;36.83;18.33;;;;;;;3.81;100.00;101975.34;694635;28;1161;-54
2021/11/24 01:33:42;;;;;;;35.90;18.13;;;;;;;3.82;100.00;101968.47;694910;28;1067;-51
2021/11/24 01:34:02;;;;;;;34.37;17.93;;;;;;;3.82;100.00;101964.19;694610;28;4395;-53
2021/11/24 01:34:23;;;;;;;32.80;17.77;;;;;;;3.84;100.00;101974.59;697515;28;1233;-54
2021/11/24 01:34:43;;;;;;;32.25;17.88;;;;;;;3.82;100.00;101969.38;700234;28;3513;-51
2021/11/24 01:35:06;;;;;;;34.50;17.93;;;;;;;3.84;100.00;101969.44;699294;28;1175;-55
2021/11/24 01:35:26;;;;;;;32.53;17.05;;;;;;;3.83;100.00;101968.53;699562;28;1270;-53
2021/11/24 01:35:47;;;;;;;32.03;17.03;;;;;;;3.84;100.00;101966.84;700047;28;1116;-56
2021/11/24 01:36:07;;;;;;;32.72;17.30;;;;;;;3.85;100.00;101973.78;700603;28;1021;-53